createdAt,value
2023-03-13T00:01:26.846Z,8.95
2023-03-13T00:03:55.570Z,8.90
2023-03-13T00:09:00.719Z,9.12
2023-03-13T00:11:28.086Z,8.96
2023-03-13T00:13:56.801Z,9.01
2023-03-13T00:16:24.141Z,9.14
2023-03-13T00:18:53.176Z,9.07
2023-03-13T00:21:22.087Z,8.88
2023-03-13T00:23:49.368Z,8.90
2023-03-13T00:26:18.762Z,8.89
2023-03-13T00:28:46.168Z,8.96
2023-03-13T00:31:12.774Z,8.95
2023-03-13T00:33:41.580Z,8.82
2023-03-13T00:36:11.725Z,8.89
2023-03-13T00:38:38.672Z,9.02
2023-03-13T00:41:06.504Z,8.98
2023-03-13T00:43:35.323Z,8.94
2023-03-13T00:46:02.389Z,8.91
2023-03-13T00:48:29.447Z,8.90
2023-03-13T00:50:56.116Z,8.94
2023-03-13T00:53:22.906Z,8.79
2023-03-13T00:55:54.804Z,8.93
2023-03-13T00:58:22.360Z,8.87
2023-03-13T01:00:48.949Z,8.89
2023-03-13T01:03:15.745Z,8.88
2023-03-13T01:05:42.783Z,8.94
2023-03-13T01:08:09.505Z,8.85
2023-03-13T01:10:36.074Z,8.82
2023-03-13T01:13:04.964Z,8.96
2023-03-13T01:15:34.838Z,9.03
2023-03-13T01:18:01.514Z,8.96
2023-03-13T01:20:29.996Z,8.96
2023-03-13T01:22:56.746Z,8.98
2023-03-13T01:31:19.307Z,9.05
2023-03-13T01:33:48.057Z,9.08
2023-03-13T01:36:15.053Z,9.08
2023-03-13T01:38:41.789Z,9.12
2023-03-13T01:41:11.214Z,9.16
2023-03-13T01:43:38.327Z,9.26
2023-03-13T01:46:07.580Z,9.26
2023-03-13T01:48:40.227Z,9.27
2023-03-13T01:51:14.739Z,9.28
2023-03-13T01:53:44.399Z,9.25
2023-03-13T01:56:17.305Z,9.27
2023-03-13T01:58:44.680Z,9.20
2023-03-13T02:01:13.027Z,9.32
2023-03-13T02:03:39.761Z,9.28
2023-03-13T02:06:08.162Z,9.28
2023-03-13T02:08:42.953Z,9.38
2023-03-13T02:11:34.112Z,9.46
2023-03-13T02:14:02.362Z,9.52
2023-03-13T02:16:29.411Z,9.59
2023-03-13T02:18:56.186Z,9.58
2023-03-13T02:21:36.808Z,9.62
2023-03-13T02:24:14.016Z,9.61
2023-03-13T02:26:40.882Z,9.67
2023-03-13T02:29:08.246Z,9.67
2023-03-13T02:31:34.798Z,9.73
2023-03-13T02:34:02.659Z,9.71
2023-03-13T02:36:31.154Z,9.77
2023-03-13T02:41:36.302Z,9.86
2023-03-13T02:44:02.874Z,9.89
2023-03-13T02:46:29.479Z,9.94
2023-03-13T02:48:57.242Z,10.02
2023-03-13T02:51:40.123Z,10.03
2023-03-13T02:54:12.138Z,10.02
2023-03-13T02:56:42.202Z,10.02
2023-03-13T02:59:08.724Z,9.98
2023-03-13T03:01:35.333Z,10.01
2023-03-13T03:04:01.912Z,10.02
2023-03-13T03:06:28.566Z,9.91
2023-03-13T03:08:55.084Z,10.02
2023-03-13T03:11:21.625Z,10.01
2023-03-13T03:13:48.180Z,9.94
2023-03-13T03:16:18.797Z,9.99
2023-03-13T03:18:45.618Z,9.99
2023-03-13T03:21:12.814Z,9.98
2023-03-13T03:23:39.453Z,10.02
2023-03-13T03:26:07.187Z,10.01
2023-03-13T03:28:33.852Z,10.04
2023-03-13T03:31:08.512Z,10.04
2023-03-13T03:33:35.425Z,10.07
2023-03-13T03:36:05.054Z,10.02
2023-03-13T03:38:31.842Z,10.01
2023-03-13T03:40:58.680Z,10.02
2023-03-13T03:43:25.329Z,10.05
2023-03-13T03:45:52.013Z,10.04
2023-03-13T03:48:18.664Z,10.04
2023-03-13T03:50:45.239Z,10.03
2023-03-13T03:53:11.838Z,10.07
2023-03-13T03:55:38.682Z,10.06
2023-03-13T03:58:05.251Z,10.08
2023-03-13T04:00:32.125Z,10.11
2023-03-13T04:02:58.773Z,10.15
2023-03-13T04:05:25.334Z,10.17
2023-03-13T04:07:51.887Z,10.22
2023-03-13T04:10:18.670Z,10.32
2023-03-13T04:12:45.273Z,10.52
2023-03-13T04:15:12.184Z,10.57
2023-03-13T04:17:39.006Z,10.70
2023-03-13T04:20:06.730Z,10.71
2023-03-13T04:22:33.505Z,10.76
2023-03-13T04:25:00.664Z,10.80
2023-03-13T04:27:27.265Z,10.85
2023-03-13T04:29:53.816Z,10.88
2023-03-13T04:32:20.358Z,10.95
2023-03-13T04:34:46.906Z,11.02
2023-03-13T04:37:13.509Z,11.09
2023-03-13T04:39:40.078Z,11.14
2023-03-13T04:42:06.788Z,11.21
2023-03-13T04:44:33.473Z,11.26
2023-03-13T04:47:00.040Z,11.27
2023-03-13T04:49:26.691Z,11.33
2023-03-13T04:51:53.259Z,11.40
2023-03-13T04:56:58.563Z,11.42
2023-03-13T04:59:25.125Z,11.40
2023-03-13T05:01:51.786Z,11.39
2023-03-13T05:06:49.637Z,11.43
2023-03-13T05:09:16.209Z,11.47
2023-03-13T05:11:42.817Z,11.45
2023-03-13T05:14:11.599Z,11.50
2023-03-13T05:16:38.899Z,11.55
2023-03-13T05:21:42.959Z,11.58
2023-03-13T05:24:09.691Z,11.52
2023-03-13T05:26:36.225Z,11.57
2023-03-13T05:29:02.992Z,11.55
2023-03-13T05:31:29.599Z,11.61
2023-03-13T05:33:56.254Z,11.58
2023-03-13T05:36:22.805Z,11.61
2023-03-13T05:38:49.336Z,11.63
2023-03-13T05:41:15.974Z,11.63
2023-03-13T05:43:42.497Z,11.66
2023-03-13T05:46:09.190Z,11.66
2023-03-13T05:48:35.759Z,11.67
2023-03-13T05:51:02.326Z,11.65
2023-03-13T05:53:28.884Z,11.67
2023-03-13T05:55:55.421Z,11.62
2023-03-13T05:58:22.024Z,11.67
2023-03-13T06:00:48.918Z,11.67
2023-03-13T06:03:15.548Z,11.75
2023-03-13T06:05:42.104Z,11.74
2023-03-13T06:08:08.684Z,11.73
2023-03-13T06:13:19.818Z,11.72
2023-03-13T06:15:54.785Z,11.76
2023-03-13T06:18:21.895Z,11.78
2023-03-13T06:20:49.753Z,11.85
2023-03-13T06:23:17.017Z,11.88
2023-03-13T06:25:47.830Z,11.86
2023-03-13T06:28:14.985Z,11.96
2023-03-13T06:30:41.692Z,11.95
2023-03-13T06:33:08.371Z,12.01
2023-03-13T06:35:46.171Z,12.05
2023-03-13T06:38:19.993Z,12.08
2023-03-13T06:40:47.969Z,12.09
2023-03-13T06:43:14.542Z,12.14
2023-03-13T06:45:41.067Z,12.20
2023-03-13T06:50:39.634Z,12.31
2023-03-13T06:53:06.242Z,12.30
2023-03-13T06:55:33.240Z,12.35
2023-03-13T06:58:00.042Z,12.34
2023-03-13T07:00:26.738Z,12.38
2023-03-13T07:02:54.090Z,12.39
2023-03-13T07:05:20.740Z,12.34
2023-03-13T07:07:47.340Z,12.33
2023-03-13T07:10:14.357Z,12.31
2023-03-13T07:12:41.078Z,12.42
2023-03-13T07:15:08.059Z,12.47
2023-03-13T07:17:34.907Z,12.44
2023-03-13T07:20:01.700Z,12.45
2023-03-13T07:22:28.325Z,12.50
2023-03-13T07:24:54.871Z,12.53
2023-03-13T07:27:21.536Z,12.51
2023-03-13T07:29:48.421Z,12.51
2023-03-13T07:32:15.298Z,12.56
2023-03-13T07:34:44.889Z,12.49
2023-03-13T07:37:16.042Z,12.48
2023-03-13T07:39:43.886Z,12.46
2023-03-13T07:42:12.020Z,12.47
2023-03-13T07:44:38.859Z,12.47
2023-03-13T07:47:05.789Z,12.49
2023-03-13T07:49:32.545Z,12.50
2023-03-13T07:51:59.134Z,12.52
2023-03-13T07:54:25.694Z,12.52
2023-03-13T07:56:52.327Z,12.58
2023-03-13T07:59:18.961Z,12.57
2023-03-13T08:01:45.547Z,12.57
2023-03-13T08:04:15.233Z,12.59
2023-03-13T08:06:42.253Z,12.69
2023-03-13T08:09:09.888Z,12.71
2023-03-13T08:14:14.307Z,12.83
2023-03-13T08:16:41.025Z,12.96
2023-03-13T08:19:07.700Z,12.99
2023-03-13T08:21:37.145Z,12.99
2023-03-13T08:24:07.170Z,13.09
2023-03-13T08:26:35.872Z,13.18
2023-03-13T08:29:06.037Z,13.30
2023-03-13T08:31:42.400Z,13.41
2023-03-13T08:34:09.006Z,13.48
2023-03-13T08:36:37.110Z,13.55
2023-03-13T08:39:06.812Z,13.62
2023-03-13T08:41:40.843Z,13.67
2023-03-13T08:44:10.323Z,13.76
2023-03-13T08:46:37.508Z,13.86
2023-03-13T08:49:06.157Z,13.92
2023-03-13T08:51:33.977Z,13.92
2023-03-13T08:54:01.121Z,13.89
2023-03-13T08:56:30.561Z,13.89
2023-03-13T08:59:01.628Z,13.90
2023-03-13T09:01:31.321Z,13.91
2023-03-13T09:06:30.111Z,13.97
2023-03-13T09:08:58.319Z,13.99
2023-03-13T09:11:25.745Z,14.06
2023-03-13T09:13:52.866Z,14.12
2023-03-13T09:16:24.583Z,14.09
2023-03-13T09:18:52.878Z,14.15
2023-03-13T09:21:27.948Z,14.13
2023-03-13T09:23:54.734Z,14.17
2023-03-13T09:26:23.381Z,14.23
2023-03-13T09:28:51.857Z,14.28
2023-03-13T09:31:21.695Z,14.38
2023-03-13T09:33:50.573Z,14.39
2023-03-13T09:36:21.481Z,14.51
2023-03-13T09:38:48.816Z,14.57
2023-03-13T09:41:18.279Z,14.62
2023-03-13T09:43:57.077Z,14.67
2023-03-13T09:46:31.727Z,14.70
2023-03-13T09:49:05.342Z,14.64
2023-03-13T09:51:42.961Z,14.63
2023-03-13T09:54:22.594Z,14.62
2023-03-13T09:57:03.867Z,14.82
2023-03-13T09:59:53.730Z,14.88
2023-03-13T10:02:56.390Z,15.05
2023-03-13T10:05:28.085Z,15.23
2023-03-13T10:08:16.022Z,15.32
2023-03-13T10:10:47.702Z,15.55
2023-03-13T10:13:24.851Z,15.76
2023-03-13T10:16:16.461Z,15.75
2023-03-13T10:18:49.219Z,15.80
2023-03-13T10:21:21.387Z,15.86
2023-03-13T10:24:01.137Z,16.12
2023-03-13T10:26:31.913Z,16.59
2023-03-13T10:29:11.958Z,16.64
2023-03-13T10:31:39.827Z,16.44
2023-03-13T10:34:14.370Z,16.49
2023-03-13T10:39:25.896Z,16.46
2023-03-13T10:41:58.976Z,16.47
2023-03-13T10:44:33.234Z,16.59
2023-03-13T10:47:02.759Z,16.88
2023-03-13T10:49:30.515Z,16.90
2023-03-13T10:52:03.145Z,16.80
2023-03-13T10:54:38.067Z,16.73
2023-03-13T10:57:19.474Z,16.55
2023-03-13T10:59:49.288Z,16.49
2023-03-13T11:02:34.079Z,16.56
2023-03-13T11:05:02.095Z,16.76
2023-03-13T11:07:30.028Z,17.17
2023-03-13T11:10:02.377Z,17.51
2023-03-13T11:12:34.413Z,17.69
2023-03-13T11:15:02.050Z,18.08
2023-03-13T11:17:40.308Z,18.14
2023-03-13T11:20:13.799Z,18.17
2023-03-13T11:22:53.595Z,18.05
2023-03-13T11:25:31.002Z,18.25
2023-03-13T11:28:03.610Z,18.69
2023-03-13T11:30:42.264Z,19.26
2023-03-13T11:33:23.009Z,19.68
2023-03-13T11:35:58.696Z,20.35
2023-03-13T11:38:36.456Z,20.56
2023-03-13T11:43:57.601Z,20.84
2023-03-13T11:46:49.243Z,21.08
2023-03-13T11:49:57.363Z,21.11
2023-03-13T11:52:43.938Z,21.36
2023-03-13T11:55:28.245Z,21.32
2023-03-13T11:58:03.554Z,21.38
2023-03-13T12:01:03.324Z,21.22
2023-03-13T12:04:11.825Z,20.83
2023-03-13T12:09:44.734Z,20.56
2023-03-13T12:12:29.573Z,20.01
2023-03-13T12:15:18.993Z,19.96
2023-03-13T12:17:52.275Z,20.40
2023-03-13T12:23:18.524Z,20.24
2023-03-13T12:25:45.250Z,20.78
2023-03-13T12:28:52.990Z,20.88
2023-03-13T12:31:26.612Z,21.38
2023-03-13T12:34:23.808Z,21.40
2023-03-13T12:37:02.193Z,21.31
2023-03-13T12:39:51.746Z,21.51
2023-03-13T12:42:21.004Z,21.34
2023-03-13T12:44:47.806Z,21.50
2023-03-13T12:47:29.727Z,21.69
2023-03-13T12:50:19.657Z,21.76
2023-03-13T12:52:59.366Z,21.57
2023-03-13T12:58:41.499Z,21.56
2023-03-13T13:01:17.955Z,21.78
2023-03-13T13:03:59.074Z,22.14
2023-03-13T13:06:27.945Z,21.99
2023-03-13T13:08:54.475Z,21.71
2023-03-13T13:11:39.432Z,21.53
2023-03-13T13:14:29.126Z,21.40
2023-03-13T13:17:11.391Z,21.42
2023-03-13T13:19:40.602Z,21.48
2023-03-13T13:22:38.076Z,21.50
2023-03-13T13:25:05.001Z,21.54
2023-03-13T13:27:31.548Z,21.49
2023-03-13T13:30:00.238Z,21.41
2023-03-13T13:32:39.494Z,21.15
2023-03-13T13:35:20.735Z,21.23
2023-03-13T13:37:49.505Z,21.21
2023-03-13T13:40:16.591Z,21.16
2023-03-13T13:43:04.286Z,21.04
2023-03-13T13:45:36.802Z,20.89
2023-03-13T13:48:24.475Z,20.78
2023-03-13T13:51:12.672Z,20.73
2023-03-13T13:53:45.121Z,20.66
2023-03-13T13:59:25.834Z,20.79
2023-03-13T14:02:15.541Z,20.71
2023-03-13T14:04:52.487Z,20.70
2023-03-13T14:07:28.134Z,20.68
2023-03-13T14:10:16.742Z,20.67
2023-03-13T14:12:57.275Z,20.61
2023-03-13T14:15:26.498Z,20.48
2023-03-13T14:17:55.993Z,20.51
2023-03-13T14:20:29.085Z,20.44
2023-03-13T14:23:01.596Z,20.46
2023-03-13T14:25:40.681Z,20.50
2023-03-13T14:28:18.245Z,20.41
2023-03-13T14:30:45.414Z,20.46
2023-03-13T14:33:12.489Z,20.50
2023-03-13T14:35:40.821Z,20.64
2023-03-13T14:38:07.458Z,20.81
2023-03-13T14:40:39.029Z,20.95
2023-03-13T14:43:19.333Z,20.81
2023-03-13T14:45:46.124Z,20.88
2023-03-13T14:48:27.091Z,20.90
2023-03-13T14:51:14.796Z,20.94
2023-03-13T14:53:57.628Z,20.94
2023-03-13T14:56:42.326Z,20.90
2023-03-13T14:59:15.049Z,20.85
2023-03-13T15:01:41.673Z,20.94
2023-03-13T15:04:08.385Z,21.02
2023-03-13T15:06:35.294Z,21.03
2023-03-13T15:09:14.179Z,20.96
2023-03-13T15:11:54.875Z,20.89
2023-03-13T15:14:37.032Z,20.89
2023-03-13T15:17:04.492Z,20.92
2023-03-13T15:19:32.373Z,20.80
2023-03-13T15:21:59.094Z,20.95
2023-03-13T15:24:25.824Z,20.90
2023-03-13T15:26:52.416Z,20.87
2023-03-13T15:29:20.293Z,20.82
2023-03-13T15:31:47.202Z,20.87
2023-03-13T15:34:15.128Z,20.84
2023-03-13T15:36:42.684Z,20.83
2023-03-13T15:39:22.554Z,20.72
2023-03-13T15:41:49.146Z,20.69
2023-03-13T15:44:15.692Z,20.63
2023-03-13T15:46:42.323Z,20.56
2023-03-13T15:49:13.081Z,20.58
2023-03-13T15:51:39.759Z,20.60
2023-03-13T15:54:06.432Z,20.56
2023-03-13T15:56:36.873Z,20.59
2023-03-13T15:59:12.859Z,20.55
2023-03-13T16:01:40.112Z,20.51
2023-03-13T16:06:38.157Z,20.55
2023-03-13T16:09:06.748Z,20.51
2023-03-13T16:11:33.846Z,20.54
2023-03-13T16:16:37.340Z,20.44
2023-03-13T16:19:04.587Z,20.46
2023-03-13T16:21:34.742Z,20.41
2023-03-13T16:24:02.118Z,20.34
2023-03-13T16:26:31.851Z,20.28
2023-03-13T16:28:58.943Z,20.19
2023-03-13T16:31:28.579Z,20.14
2023-03-13T16:33:56.749Z,20.04
2023-03-13T16:36:25.998Z,19.98
2023-03-13T16:38:52.869Z,19.87
2023-03-13T16:41:22.320Z,19.77
2023-03-13T16:43:49.350Z,19.73
2023-03-13T16:46:20.972Z,19.58
2023-03-13T16:48:48.945Z,19.48
2023-03-13T16:51:19.469Z,19.45
2023-03-13T16:53:48.620Z,19.34
2023-03-13T16:56:36.086Z,19.26
2023-03-13T16:59:07.598Z,19.17
2023-03-13T17:01:35.019Z,19.05
2023-03-13T17:04:01.642Z,18.90
2023-03-13T17:06:32.986Z,18.79
2023-03-13T17:09:02.214Z,18.73
2023-03-13T17:11:29.350Z,18.66
2023-03-13T17:13:56.247Z,18.55
2023-03-13T17:16:25.777Z,18.47
2023-03-13T17:18:53.788Z,18.39
2023-03-13T17:23:55.672Z,18.21
2023-03-13T17:26:24.752Z,18.14
2023-03-13T17:28:54.625Z,18.04
2023-03-13T17:31:22.372Z,18.05
2023-03-13T17:33:49.290Z,18.08
2023-03-13T17:36:22.057Z,18.05
2023-03-13T17:38:51.619Z,18.04
2023-03-13T17:41:20.768Z,17.97
2023-03-13T17:43:47.669Z,17.94
2023-03-13T17:46:30.361Z,17.91
2023-03-13T17:48:56.896Z,17.91
2023-03-13T17:54:05.074Z,17.87
2023-03-13T17:56:36.424Z,17.79
2023-03-13T17:59:04.386Z,17.76
2023-03-13T18:01:32.648Z,17.65
2023-03-13T18:03:59.794Z,17.62
2023-03-13T18:09:08.187Z,17.55
2023-03-13T18:11:36.526Z,17.55
2023-03-13T18:14:04.106Z,17.55
2023-03-13T18:16:37.841Z,17.63
2023-03-13T18:19:06.135Z,17.64
2023-03-13T18:21:33.134Z,17.66
2023-03-13T18:23:59.763Z,17.53
2023-03-13T18:26:31.570Z,17.51
2023-03-13T18:29:02.423Z,17.45
2023-03-13T18:31:32.041Z,17.34
2023-03-13T18:33:59.478Z,17.28
2023-03-13T18:36:27.382Z,17.19
2023-03-13T18:38:54.817Z,17.09
2023-03-13T18:41:21.749Z,16.66
2023-03-13T18:43:49.435Z,16.08
2023-03-13T18:46:28.112Z,15.43
2023-03-13T18:48:55.486Z,14.95
2023-03-13T18:51:25.215Z,14.52
2023-03-13T18:53:53.314Z,14.39
2023-03-13T18:56:29.522Z,14.19
2023-03-13T18:58:56.553Z,14.09
2023-03-13T19:01:26.520Z,13.98
2023-03-13T19:03:53.810Z,13.98
2023-03-13T19:06:25.748Z,13.92
2023-03-13T19:08:55.121Z,13.95
2023-03-13T19:11:27.696Z,13.89
2023-03-13T19:13:54.476Z,13.91
2023-03-13T19:16:31.034Z,13.65
2023-03-13T19:18:58.420Z,13.41
2023-03-13T19:21:30.261Z,13.31
2023-03-13T19:23:58.434Z,13.52
2023-03-13T19:26:31.733Z,13.60
2023-03-13T19:28:59.461Z,13.72
2023-03-13T19:31:26.675Z,13.61
2023-03-13T19:33:54.517Z,13.66
2023-03-13T19:39:01.014Z,13.68
2023-03-13T19:41:28.043Z,13.59
2023-03-13T19:43:54.583Z,13.53
2023-03-13T19:46:29.012Z,13.51
2023-03-13T19:49:00.644Z,13.46
2023-03-13T19:51:29.261Z,13.40
2023-03-13T19:53:56.354Z,13.24
2023-03-13T19:56:25.552Z,13.25
2023-03-13T19:58:57.046Z,13.20
2023-03-13T20:01:23.838Z,13.16
2023-03-13T20:03:50.433Z,13.18
2023-03-13T20:09:00.386Z,13.22
2023-03-13T20:11:28.350Z,13.23
2023-03-13T20:13:55.418Z,13.23
2023-03-13T20:16:22.963Z,13.14
2023-03-13T20:18:49.993Z,12.99
2023-03-13T20:21:17.507Z,12.92
2023-03-13T20:23:47.418Z,12.85
2023-03-13T20:26:16.550Z,12.80
2023-03-13T20:28:45.763Z,12.45
2023-03-13T20:31:13.517Z,12.12
2023-03-13T20:33:43.311Z,11.76
2023-03-13T20:36:12.819Z,11.50
2023-03-13T20:38:39.971Z,11.43
2023-03-13T20:41:07.505Z,11.30
2023-03-13T20:43:35.484Z,11.25
2023-03-13T20:46:02.394Z,11.26
2023-03-13T20:48:29.538Z,11.28
2023-03-13T20:50:58.339Z,11.24
2023-03-13T20:53:26.075Z,11.26
2023-03-13T20:55:54.576Z,11.30
2023-03-13T21:00:52.475Z,11.38
2023-03-13T21:03:19.602Z,11.39
2023-03-13T21:05:46.217Z,11.35
2023-03-13T21:08:12.752Z,11.38
2023-03-13T21:10:40.714Z,11.54
2023-03-13T21:13:09.225Z,11.67
2023-03-13T21:15:35.961Z,11.64
2023-03-13T21:18:02.718Z,11.65
2023-03-13T21:20:29.547Z,11.60
2023-03-13T21:22:56.436Z,11.53
2023-03-13T21:25:23.456Z,11.44
2023-03-13T21:27:50.481Z,11.34
2023-03-13T21:30:20.244Z,11.34
2023-03-13T21:32:47.561Z,11.28
2023-03-13T21:35:15.518Z,11.22
2023-03-13T21:37:42.934Z,11.22
2023-03-13T21:42:41.883Z,11.18
2023-03-13T21:45:09.164Z,10.83
2023-03-13T21:47:38.600Z,10.79
2023-03-13T21:52:41.358Z,10.81
2023-03-13T21:55:11.949Z,10.89
2023-03-13T21:57:39.115Z,10.86
2023-03-13T22:02:42.500Z,10.80
2023-03-13T22:05:09.461Z,10.91
2023-03-13T22:07:36.440Z,10.94
2023-03-13T22:10:03.542Z,10.87
2023-03-13T22:12:30.133Z,10.71
2023-03-13T22:14:57.817Z,10.56
2023-03-13T22:20:02.416Z,10.59
2023-03-13T22:22:29.639Z,10.60
2023-03-13T22:24:56.195Z,10.64
2023-03-13T22:27:24.273Z,10.60
2023-03-13T22:29:51.103Z,10.59
2023-03-13T22:32:17.717Z,10.48
2023-03-13T22:37:21.909Z,10.51
2023-03-13T22:39:50.135Z,10.47
2023-03-13T22:42:16.718Z,10.48
2023-03-13T22:44:43.252Z,10.52
2023-03-13T22:47:09.794Z,10.45
2023-03-13T22:49:36.322Z,10.49
2023-03-13T22:52:03.492Z,10.45
2023-03-13T22:54:30.372Z,10.43
2023-03-13T22:56:57.162Z,10.39
2023-03-13T22:59:23.719Z,10.54
2023-03-13T23:01:50.274Z,10.49
2023-03-13T23:04:16.831Z,10.35
2023-03-13T23:06:43.412Z,10.50
2023-03-13T23:09:10.305Z,10.51
2023-03-13T23:11:36.954Z,10.54
2023-03-13T23:14:03.813Z,10.53
2023-03-13T23:16:30.624Z,10.52
2023-03-13T23:18:57.258Z,10.53
2023-03-13T23:21:24.023Z,10.46
2023-03-13T23:23:53.856Z,10.51
2023-03-13T23:26:20.477Z,10.51
2023-03-13T23:28:47.042Z,10.52
2023-03-13T23:31:19.723Z,10.43
2023-03-13T23:33:47.126Z,10.46
2023-03-13T23:36:19.079Z,10.32
2023-03-13T23:38:49.738Z,10.30
2023-03-13T23:41:16.309Z,10.38
2023-03-13T23:43:42.908Z,10.30
2023-03-13T23:46:21.877Z,10.30
2023-03-13T23:48:48.458Z,10.31
2023-03-13T23:51:15.114Z,10.32
2023-03-13T23:53:43.334Z,10.35
2023-03-13T23:56:11.385Z,10.44
2023-03-13T23:58:38.331Z,10.40
